Time;durP1;ratioP1;P1;durP2;ratioP2;P2;SDS_P1;SDS_P2;PMS_P1;PMS_P2;Temp;Humidity;BMP_temperature;BMP_pressure;BME280_temperature;BME280_humidity;BME280_pressure;Samples;Min_cycle;Max_cycle;Signal;HPM_P1;HPM_P2
2023/10/06 00:01:50;;;;;;;5.38;3.10;;;;;;;10.57;97.24;101754.63;4878895;29;20057;-69
2023/10/06 00:04:54;;;;;;;5.03;2.50;;;;;;;10.56;97.25;101759.00;4878978;29;20079;-69
2023/10/06 00:07:57;;;;;;;8.55;2.50;;;;;;;10.48;97.41;101756.59;4879019;29;20133;-69
2023/10/06 00:11:15;;;;;;;6.00;2.20;;;;;;;10.52;96.74;101756.50;4878579;29;20519;-69
2023/10/06 00:14:38;;;;;;;3.65;2.00;;;;;;;10.50;97.08;101759.19;4878809;29;20417;-69
2023/10/06 00:17:48;;;;;;;4.32;2.90;;;;;;;10.35;97.43;101760.53;4878656;29;20059;-69
2023/10/06 00:20:56;;;;;;;10.02;2.40;;;;;;;10.44;97.29;101762.84;4878835;29;20052;-69
2023/10/06 00:23:59;;;;;;;4.68;2.28;;;;;;;10.32;97.08;101755.38;4878697;29;20085;-69
2023/10/06 00:27:03;;;;;;;7.63;2.55;;;;;;;10.30;96.77;101749.34;4878838;29;20055;-69
2023/10/06 00:30:11;;;;;;;7.22;2.90;;;;;;;10.37;97.08;101747.38;4867168;29;20100;-69
2023/10/06 00:33:15;;;;;;;6.35;2.63;;;;;;;10.34;97.23;101748.38;4867041;29;20112;-68
2023/10/06 00:36:18;;;;;;;7.47;2.58;;;;;;;10.31;97.27;101747.59;4878627;29;20076;-69
2023/10/06 00:39:29;;;;;;;17.15;2.65;;;;;;;10.35;96.57;101744.84;4878534;29;20048;-69
2023/10/06 00:42:33;;;;;;;4.90;2.47;;;;;;;10.30;96.72;101744.09;4878789;29;20071;-68
2023/10/06 00:45:39;;;;;;;9.70;2.97;;;;;;;10.28;96.33;101751.16;4867003;29;20114;-69
2023/10/06 00:48:44;;;;;;;7.15;2.58;;;;;;;10.22;96.97;101748.72;4878653;29;20105;-68
2023/10/06 00:51:47;;;;;;;4.38;2.85;;;;;;;10.19;96.83;101754.03;4878424;29;20417;-69
2023/10/06 00:54:50;;;;;;;;;;;;;;;10.19;96.84;101751.41;4867564;29;20144;-68
2023/10/06 00:57:54;;;;;;;6.78;2.00;;;;;;;10.25;96.57;101751.22;4867013;29;19926;-68
2023/10/06 01:00:57;;;;;;;8.32;2.80;;;;;;;10.31;96.47;101750.22;4866994;29;20105;-68
2023/10/06 01:04:15;;;;;;;6.85;1.90;;;;;;;10.30;95.87;101751.09;4878470;29;20088;-68
2023/10/06 01:07:24;;;;;;;10.05;2.42;;;;;;;10.18;96.50;101749.72;4878440;29;20521;-69
2023/10/06 01:10:28;;;;;;;4.00;2.13;;;;;;;10.16;97.08;101747.13;4866873;29;20465;-70
2023/10/06 01:13:31;;;;;;;8.10;2.42;;;;;;;10.06;96.95;101732.66;4866905;29;20685;-69
2023/10/06 01:16:38;;;;;;;;;;;;;;;10.14;95.99;101738.47;4878744;29;20104;-69
2023/10/06 01:19:47;;;;;;;14.75;2.80;;;;;;;10.06;95.05;101734.41;4878287;29;20444;-68
2023/10/06 01:22:56;;;;;;;14.82;2.10;;;;;;;9.94;95.33;101727.78;4866710;29;20048;-69
2023/10/06 01:26:00;;;;;;;15.93;2.00;;;;;;;9.83;95.48;101725.50;4866638;29;20044;-68
2023/10/06 01:29:03;;;;;;;7.43;2.05;;;;;;;9.86;95.73;101735.88;4879606;29;20059;-68
2023/10/06 01:32:08;;;;;;;11.50;2.33;;;;;;;9.85;96.08;101734.13;4881614;29;20060;-68
2023/10/06 01:35:13;;;;;;;14.90;2.50;;;;;;;9.82;96.14;101739.44;4881721;29;20413;-69
2023/10/06 01:38:22;;;;;;;20.42;2.72;;;;;;;9.76;96.58;101742.25;4881620;29;20051;-69
2023/10/06 01:41:26;;;;;;;6.75;3.08;;;;;;;9.66;97.32;101744.28;4881548;29;20055;-69
2023/10/06 01:44:34;;;;;;;3.80;2.20;;;;;;;9.77;96.77;101746.59;4870307;29;20626;-69
2023/10/06 01:47:38;;;;;;;7.22;2.50;;;;;;;9.75;97.09;101740.53;4881432;29;20055;-68
2023/10/06 01:50:41;;;;;;;;;;;;;;;9.81;96.79;101742.13;4881858;29;20141;-69
2023/10/06 01:53:44;;;;;;;17.77;3.25;;;;;;;9.80;96.35;101741.28;4881199;29;20411;-69
2023/10/06 01:56:48;;;;;;;6.15;2.15;;;;;;;9.80;96.12;101737.81;4869992;29;20097;-69
2023/10/06 01:59:51;;;;;;;3.58;1.85;;;;;;;9.82;96.16;101734.22;4869827;29;20048;-69
2023/10/06 02:02:54;;;;;;;10.23;2.53;;;;;;;9.73;95.91;101740.59;4881114;29;20105;-69
2023/10/06 02:05:59;;;;;;;11.45;2.42;;;;;;;9.75;96.18;101737.94;4881071;29;20512;-69
2023/10/06 02:09:18;;;;;;;11.45;2.60;;;;;;;9.76;95.93;101735.28;4880928;29;20068;-69
2023/10/06 02:12:21;;;;;;;6.82;2.38;;;;;;;9.61;94.98;101734.88;4869299;29;20059;-68
2023/10/06 02:15:25;;;;;;;7.78;2.17;;;;;;;9.62;94.72;101737.44;4869340;29;20581;-69
2023/10/06 02:18:37;;;;;;;8.55;2.70;;;;;;;9.65;93.77;101731.28;4880951;29;20441;-69
2023/10/06 02:21:44;;;;;;;6.95;2.55;;;;;;;9.65;92.81;101726.91;4880922;29;20068;-69
2023/10/06 02:24:47;;;;;;;5.00;2.25;;;;;;;9.63;92.12;101714.78;4880939;29;20048;-69
2023/10/06 02:27:53;;;;;;;8.80;2.08;;;;;;;9.66;91.40;101712.09;4869059;29;20056;-69
2023/10/06 02:31:00;;;;;;;8.25;2.28;;;;;;;9.53;91.92;101707.22;4880694;29;20051;-69
2023/10/06 02:34:04;;;;;;;5.57;1.80;;;;;;;9.63;91.99;101717.41;4880562;29;20055;-69
2023/10/06 02:37:08;;;;;;;4.72;2.00;;;;;;;9.55;91.96;101709.78;4880549;29;20146;-69
2023/10/06 02:40:12;;;;;;;7.07;1.73;;;;;;;9.58;91.84;101708.84;4868020;29;20466;-69
2023/10/06 02:43:20;;;;;;;4.03;1.90;;;;;;;9.54;91.97;101702.88;4868894;29;20462;-69
2023/10/06 02:46:25;;;;;;;4.05;1.55;;;;;;;9.52;91.83;101705.50;4880429;29;20425;-68
2023/10/06 02:49:32;;;;;;;4.95;2.13;;;;;;;9.45;91.77;101704.00;4880374;29;20532;-68
2023/10/06 02:52:42;;;;;;;4.60;1.77;;;;;;;9.50;91.37;101711.66;4868659;29;20052;-68
2023/10/06 02:55:48;;;;;;;5.18;1.95;;;;;;;9.42;91.29;101704.06;4880165;29;20052;-68
2023/10/06 02:58:51;;;;;;;8.35;1.83;;;;;;;9.45;91.70;101700.53;4880227;29;20544;-68
2023/10/06 03:01:57;;;;;;;5.00;1.98;;;;;;;9.47;92.26;101703.94;4880185;29;20105;-68
2023/10/06 03:05:11;;;;;;;5.32;2.10;;;;;;;9.52;91.77;101715.09;4880075;29;20076;-68
2023/10/06 03:08:20;;;;;;;5.65;1.95;;;;;;;9.49;91.19;101718.66;4868505;29;20051;-68
2023/10/06 03:11:25;;;;;;;6.63;2.25;;;;;;;9.44;90.17;101710.09;4868113;29;20064;-68
2023/10/06 03:14:37;;;;;;;6.43;1.60;;;;;;;9.44;90.20;101711.84;4880008;29;20071;-68
2023/10/06 03:17:43;;;;;;;6.85;1.58;;;;;;;9.42;90.32;101711.91;4868383;29;20079;-68
2023/10/06 03:20:47;;;;;;;4.85;1.58;;;;;;;9.40;90.46;101708.47;4879942;29;20105;-68
2023/10/06 03:23:58;;;;;;;7.35;1.52;;;;;;;9.36;91.07;101708.63;4868068;29;20048;-68
2023/10/06 03:27:08;;;;;;;5.43;1.95;;;;;;;9.28;91.59;101709.69;4868231;29;20052;-68
2023/10/06 03:30:19;;;;;;;3.92;1.83;;;;;;;9.24;91.92;101709.81;4879656;29;20138;-68
2023/10/06 03:33:23;;;;;;;4.35;1.38;;;;;;;9.31;91.77;101706.97;4867894;29;20561;-68
2023/10/06 03:36:38;;;;;;;4.05;1.50;;;;;;;9.38;91.53;101706.78;4879574;29;20071;-69
2023/10/06 03:39:48;;;;;;;4.68;1.30;;;;;;;9.31;91.62;101706.97;4868143;29;20052;-68
2023/10/06 03:42:52;;;;;;;9.45;1.60;;;;;;;9.26;92.82;101710.63;4867661;29;20051;-69
2023/10/06 03:45:56;;;;;;;3.83;1.80;;;;;;;9.22;93.52;101711.59;4867655;29;20071;-69
2023/10/06 03:49:03;;;;;;;5.85;1.95;;;;;;;9.21;93.82;101713.34;4879201;29;20573;-68
2023/10/06 03:52:09;;;;;;;4.68;1.65;;;;;;;9.17;94.89;101709.13;4867291;29;20129;-69
2023/10/06 03:55:13;;;;;;;8.43;2.78;;;;;;;9.17;95.17;101708.28;4867536;29;20120;-69
2023/10/06 03:58:18;;;;;;;3.92;1.70;;;;;;;9.19;94.90;101709.06;4879053;29;20096;-69
2023/10/06 04:01:26;;;;;;;7.18;1.90;;;;;;;9.21;94.33;101712.50;4879333;29;20087;-68
2023/10/06 04:04:29;;;;;;;6.22;1.83;;;;;;;9.22;94.56;101722.03;4879158;29;20136;-68
2023/10/06 04:07:32;;;;;;;;;;;;;;;9.18;94.49;101725.63;4879497;29;20056;-67
2023/10/06 04:10:36;;;;;;;8.55;1.60;;;;;;;9.14;94.55;101719.66;4867488;29;19922;-68
2023/10/06 04:13:40;;;;;;;8.38;1.70;;;;;;;9.08;95.21;101722.41;4878839;29;20526;-67
2023/10/06 04:16:45;;;;;;;12.52;1.73;;;;;;;9.11;95.28;101721.47;4878804;29;20044;-68
2023/10/06 04:19:48;;;;;;;5.55;2.25;;;;;;;9.08;95.91;101722.41;4878727;29;20512;-67
2023/10/06 04:22:52;;;;;;;3.13;1.73;;;;;;;9.14;96.39;101722.25;4878719;29;20048;-66
2023/10/06 04:25:56;;;;;;;7.45;1.90;;;;;;;9.12;96.78;101723.19;4878613;29;20113;-66
2023/10/06 04:28:59;;;;;;;5.43;2.15;;;;;;;8.92;97.60;101726.34;4878639;29;20047;-67
2023/10/06 04:32:02;;;;;;;;;;;;;;;8.96;98.05;101723.59;4879157;29;20073;-67
2023/10/06 04:35:14;;;;;;;4.03;1.50;;;;;;;9.15;97.93;101715.28;4867436;29;19965;-66
2023/10/06 04:38:19;;;;;;;5.80;2.45;;;;;;;9.24;95.80;101707.19;4878418;29;20067;-70
2023/10/06 04:41:23;;;;;;;14.18;1.50;;;;;;;9.19;96.01;101706.44;4878527;29;20454;-67
2023/10/06 04:44:26;;;;;;;3.63;2.00;;;;;;;9.18;96.19;101707.38;4878255;29;20044;-67
2023/10/06 04:47:32;;;;;;;15.98;2.13;;;;;;;9.10;95.90;101704.13;4877882;29;20100;-67
2023/10/06 04:50:36;;;;;;;10.35;2.05;;;;;;;9.12;95.31;101712.75;4878134;29;20088;-70
2023/10/06 04:53:39;;;;;;;16.75;1.83;;;;;;;9.05;94.79;101709.44;4878356;29;20044;-67
2023/10/06 04:56:43;;;;;;;3.15;1.38;;;;;;;9.08;95.01;101709.38;4878387;29;20111;-68
2023/10/06 04:59:47;;;;;;;4.80;1.50;;;;;;;9.11;94.51;101718.88;4878357;29;20047;-68
2023/10/06 05:02:51;;;;;;;13.85;1.73;;;;;;;9.04;94.41;101712.97;4878370;29;20053;-68
2023/10/06 05:05:58;;;;;;;3.95;1.67;;;;;;;8.96;94.52;101726.19;4882054;29;20043;-66
2023/10/06 05:09:02;;;;;;;8.57;5.13;;;;;;;9.03;94.65;101717.34;4882000;29;20048;-67
2023/10/06 05:12:06;;;;;;;4.65;1.90;;;;;;;8.89;94.66;101718.59;4881739;29;20063;-69
2023/10/06 05:15:14;;;;;;;5.22;1.52;;;;;;;8.96;94.30;101722.72;4882033;29;20096;-68
2023/10/06 05:18:17;;;;;;;5.93;2.58;;;;;;;9.04;94.04;101720.78;4882128;29;20092;-68
2023/10/06 05:21:20;;;;;;;;;;;;;;;8.96;94.42;101714.91;4882312;29;20056;-68
2023/10/06 05:24:24;;;;;;;2.60;1.60;;;;;;;8.97;94.32;101717.50;4881993;29;19983;-68
2023/10/06 05:27:28;;;;;;;5.43;1.83;;;;;;;8.99;93.98;101715.69;4881789;29;20100;-68
2023/10/06 05:30:31;;;;;;;5.88;1.85;;;;;;;9.02;93.60;101713.00;4870352;29;20052;-69
2023/10/06 05:33:34;;;;;;;3.72;1.38;;;;;;;8.93;94.03;101715.84;4881727;29;20537;-69
2023/10/06 05:36:39;;;;;;;6.35;1.38;;;;;;;8.92;93.83;101718.50;4881375;29;20132;-68
2023/10/06 05:39:42;;;;;;;6.28;1.60;;;;;;;8.85;93.60;101713.44;4878629;29;20048;-67
2023/10/06 05:42:49;;;;;;;;;;;;;;;8.90;93.20;101710.69;4880294;29;20108;-68
2023/10/06 05:45:52;;;;;;;3.17;1.38;;;;;;;8.95;92.62;101708.84;4880282;29;19923;-68
2023/10/06 05:48:59;;;;;;;3.88;1.50;;;;;;;8.84;92.96;101716.09;4880328;29;20394;-68
2023/10/06 05:52:03;;;;;;;4.47;1.35;;;;;;;8.82;92.55;101717.88;4879899;29;20071;-69
2023/10/06 05:55:09;;;;;;;3.13;1.35;;;;;;;8.81;92.44;101714.44;4880190;29;20071;-68
2023/10/06 05:58:19;;;;;;;3.20;1.73;;;;;;;8.82;92.70;101728.31;4868671;29;20080;-68
2023/10/06 06:01:28;;;;;;;6.10;1.33;;;;;;;8.75;92.82;101727.63;4880389;29;20052;-71
2023/10/06 06:04:34;;;;;;;3.10;1.30;;;;;;;8.75;92.82;101732.00;4879984;29;20047;-68
2023/10/06 06:07:37;;;;;;;4.97;1.40;;;;;;;8.74;92.96;101735.47;4880130;29;20044;-68
2023/10/06 06:10:43;;;;;;;2.60;1.02;;;;;;;8.77;92.71;101740.59;4879693;29;20112;-68
2023/10/06 06:13:56;;;;;;;2.35;1.10;;;;;;;8.77;93.07;101735.41;4879837;29;20056;-68
2023/10/06 06:17:00;;;;;;;2.67;1.50;;;;;;;8.76;92.68;101733.69;4879209;29;20101;-68
2023/10/06 06:20:07;;;;;;;3.42;1.25;;;;;;;8.73;92.87;101725.94;4879628;29;20048;-67
2023/10/06 06:23:15;;;;;;;4.55;1.50;;;;;;;8.75;93.19;101721.56;4878996;29;20092;-67
2023/10/06 06:26:19;;;;;;;3.20;1.83;;;;;;;8.84;93.12;101727.41;4878130;29;20116;-67
2023/10/06 06:29:24;;;;;;;2.25;1.05;;;;;;;8.81;92.98;101721.41;4868053;29;20123;-68
2023/10/06 06:32:27;;;;;;;2.67;1.23;;;;;;;8.88;92.14;101725.56;4879380;29;20075;-67
2023/10/06 06:35:32;;;;;;;3.20;1.23;;;;;;;8.92;91.80;101716.75;4878617;29;20047;-68
2023/10/06 06:38:39;;;;;;;4.65;2.45;;;;;;;8.97;91.94;101714.88;4878071;29;20513;-68
2023/10/06 06:41:43;;;;;;;4.72;1.23;;;;;;;8.97;91.94;101721.84;4878646;29;20083;-68
2023/10/06 06:44:50;;;;;;;3.90;1.40;;;;;;;9.01;92.21;101720.88;4878463;29;20071;-68
2023/10/06 06:47:55;;;;;;;2.47;1.00;;;;;;;9.08;91.73;101725.88;4878410;29;20493;-68
2023/10/06 06:50:58;;;;;;;9.85;1.30;;;;;;;9.02;91.50;101740.84;4879035;29;20128;-68
2023/10/06 06:54:01;;;;;;;;;;;;;;;9.01;91.94;101742.59;4879192;29;20051;-68
2023/10/06 06:57:05;;;;;;;2.03;0.93;;;;;;;8.84;92.52;101739.59;4878880;29;19971;-68
2023/10/06 07:00:17;;;;;;;3.63;1.20;;;;;;;8.87;93.49;101743.84;4879122;29;20052;-68
2023/10/06 07:03:25;;;;;;;3.17;0.95;;;;;;;8.90;93.13;101752.44;4878810;29;20504;-68
2023/10/06 07:06:30;;;;;;;2.80;1.00;;;;;;;8.97;92.63;101748.78;4878795;29;20056;-67
2023/10/06 07:09:34;;;;;;;2.35;1.00;;;;;;;8.93;93.03;101751.50;4878609;29;20051;-67
2023/10/06 07:12:37;;;;;;;2.80;0.88;;;;;;;8.97;92.83;101746.19;4878661;29;20052;-68
2023/10/06 07:15:41;;;;;;;;;;;;;;;8.81;92.97;101747.47;4879054;29;20085;-68
2023/10/06 07:18:45;;;;;;;1.77;0.90;;;;;;;8.79;93.50;101754.47;4878545;29;19967;-69
2023/10/06 07:21:49;;;;;;;2.08;1.00;;;;;;;8.95;93.80;101750.59;4878542;29;20101;-69
2023/10/06 07:24:55;;;;;;;2.75;0.73;;;;;;;9.16;93.51;101743.09;4878410;29;20052;-69
2023/10/06 07:28:02;;;;;;;3.40;0.90;;;;;;;9.21;92.54;101733.38;4877930;29;20157;-69
2023/10/06 07:31:16;;;;;;;1.90;0.82;;;;;;;9.30;92.39;101746.19;4879094;29;20441;-68
2023/10/06 07:34:20;;;;;;;1.88;0.85;;;;;;;9.38;92.01;101749.44;4878099;29;20607;-68
2023/10/06 07:37:23;;;;;;;2.58;0.95;;;;;;;9.46;91.51;101751.84;4878288;29;20076;-68
2023/10/06 07:40:27;;;;;;;1.80;0.70;;;;;;;9.43;91.52;101747.53;4878129;29;20055;-69
2023/10/06 07:43:31;;;;;;;1.83;0.70;;;;;;;9.52;92.39;101754.28;4878121;29;20044;-68
2023/10/06 07:46:34;;;;;;;1.75;0.77;;;;;;;9.68;91.45;101763.38;4877938;29;20570;-68
2023/10/06 07:49:40;;;;;;;2.80;1.27;;;;;;;9.66;92.75;101754.72;4878334;29;20066;-69
2023/10/06 07:52:46;;;;;;;3.80;1.20;;;;;;;9.68;94.46;101757.31;4878194;29;20056;-66
2023/10/06 07:55:49;;;;;;;4.00;1.17;;;;;;;9.71;92.44;101746.75;4876848;29;20052;-65
2023/10/06 07:58:53;;;;;;;;;;;;;;;9.78;91.82;101763.97;4878931;29;20104;-65
2023/10/06 08:01:58;;;;;;;4.68;1.25;;;;;;;9.87;92.06;101758.47;4878718;29;19922;-65
2023/10/06 08:05:04;;;;;;;2.42;1.20;;;;;;;9.85;92.59;101759.41;4877851;29;20051;-68
2023/10/06 08:08:07;;;;;;;5.07;1.30;;;;;;;9.94;93.12;101756.53;4877122;29;20569;-67
2023/10/06 08:11:13;;;;;;;4.13;1.33;;;;;;;10.02;93.28;101759.78;4877728;29;20076;-67
2023/10/06 08:14:16;;;;;;;3.20;1.30;;;;;;;10.02;93.27;101751.94;4877667;29;20060;-68
2023/10/06 08:17:19;;;;;;;;;;;;;;;9.99;93.55;101746.81;4878308;29;20044;-67
2023/10/06 08:20:24;;;;;;;3.10;1.13;;;;;;;9.97;94.34;101749.44;4877657;29;19922;-67
2023/10/06 08:23:29;;;;;;;3.38;1.45;;;;;;;10.02;94.52;101758.03;4876906;29;20063;-68
2023/10/06 08:26:33;;;;;;;3.47;0.95;;;;;;;10.09;94.49;101763.91;4877011;29;20412;-68
2023/10/06 08:29:37;;;;;;;2.38;1.10;;;;;;;10.24;94.58;101749.50;4876648;29;20056;-68
2023/10/06 08:32:43;;;;;;;3.20;1.60;;;;;;;10.35;94.89;101751.81;4875592;29;20040;-68
2023/10/06 08:35:55;;;;;;;4.25;0.90;;;;;;;10.50;94.68;101745.22;4876227;29;20051;-68
2023/10/06 08:39:00;;;;;;;3.28;1.42;;;;;;;10.71;94.84;101734.06;4876479;29;20056;-68
2023/10/06 08:42:09;;;;;;;2.42;1.13;;;;;;;10.82;95.71;101733.72;4876776;29;20108;-68
2023/10/06 08:45:18;;;;;;;2.42;1.05;;;;;;;10.93;95.71;101731.59;4876646;29;20052;-68
2023/10/06 08:48:26;;;;;;;3.80;1.40;;;;;;;11.07;95.32;101728.47;4877672;29;20072;-69
2023/10/06 08:51:32;;;;;;;6.88;1.35;;;;;;;11.13;95.01;101718.63;4877566;29;20060;-68
2023/10/06 08:54:36;;;;;;;2.90;1.20;;;;;;;11.24;94.94;101722.66;4877145;29;20059;-68
2023/10/06 08:57:41;;;;;;;7.97;1.40;;;;;;;11.38;95.14;101716.00;4877301;29;20056;-68
2023/10/06 09:00:44;;;;;;;3.70;1.00;;;;;;;11.52;95.14;101710.28;4877188;29;20048;-68
2023/10/06 09:03:49;;;;;;;5.00;2.60;;;;;;;11.59;94.73;101710.91;4877214;29;20412;-69
2023/10/06 09:07:10;;;;;;;4.57;1.80;;;;;;;11.67;94.52;101702.72;4877287;29;20052;-69
2023/10/06 09:10:17;;;;;;;3.25;1.55;;;;;;;11.78;94.24;101696.19;4877049;29;20538;-69
2023/10/06 09:13:21;;;;;;;6.03;1.90;;;;;;;11.76;93.61;101687.50;4877345;29;20509;-69
2023/10/06 09:16:49;;;;;;;6.78;2.13;;;;;;;11.78;93.77;101682.22;4877094;29;20088;-69
2023/10/06 09:19:52;;;;;;;3.42;2.25;;;;;;;11.86;95.37;101683.66;4877249;29;20421;-69
2023/10/06 09:22:56;;;;;;;4.32;1.65;;;;;;;12.01;97.06;101681.34;4876887;29;20052;-68
2023/10/06 09:26:02;;;;;;;4.20;1.67;;;;;;;12.14;98.60;101676.47;4877154;29;20557;-68
2023/10/06 09:29:09;;;;;;;3.83;1.40;;;;;;;12.23;99.71;101666.47;4877193;29;20185;-69
2023/10/06 09:32:21;;;;;;;6.65;1.52;;;;;;;12.41;99.45;101659.59;4877169;29;20083;-68
2023/10/06 09:35:25;;;;;;;4.30;2.00;;;;;;;12.45;97.74;101661.19;4877033;29;20056;-68
2023/10/06 09:38:28;;;;;;;5.18;1.38;;;;;;;12.52;97.85;101661.78;4876429;29;20406;-68
2023/10/06 09:41:32;;;;;;;5.10;1.38;;;;;;;12.56;97.71;101648.44;4875482;29;20069;-68
2023/10/06 09:44:37;;;;;;;3.00;1.50;;;;;;;12.67;98.29;101653.25;4876939;29;20111;-69
2023/10/06 09:47:56;;;;;;;5.43;1.50;;;;;;;12.70;98.75;101658.38;4876863;29;20074;-67
2023/10/06 09:51:01;;;;;;;5.88;1.70;;;;;;;12.78;98.82;101648.38;4878534;29;20409;-68
2023/10/06 09:54:09;;;;;;;3.85;1.38;;;;;;;12.90;98.83;101646.16;4878634;29;20092;-67
2023/10/06 09:57:12;;;;;;;3.83;1.52;;;;;;;13.01;98.60;101638.63;4879017;29;20092;-67
2023/10/06 10:00:19;;;;;;;;;;;;;;;13.12;99.75;101635.53;4878990;29;20072;-67
2023/10/06 10:03:22;;;;;;;3.95;1.77;;;;;;;13.28;99.50;101635.72;4879045;29;20329;-68
2023/10/06 10:06:27;;;;;;;4.05;1.60;;;;;;;13.44;100.00;101628.84;4879606;29;20055;-68
2023/10/06 10:09:34;;;;;;;5.28;1.33;;;;;;;13.54;99.85;101635.38;4878249;29;20069;-68
2023/10/06 10:12:57;;;;;;;7.70;1.75;;;;;;;13.78;100.00;101637.75;4879258;29;20056;-69
2023/10/06 10:16:26;;;;;;;8.20;2.70;;;;;;;14.16;98.95;101635.88;4879925;29;20156;-67
2023/10/06 10:19:31;;;;;;;4.72;1.98;;;;;;;14.47;96.33;101640.47;4880173;29;20097;-67
2023/10/06 10:22:34;;;;;;;5.85;2.03;;;;;;;14.67;94.71;101625.44;4878568;29;20051;-67
2023/10/06 10:25:39;;;;;;;6.90;2.10;;;;;;;14.79;95.33;101624.81;4880428;29;20051;-67
2023/10/06 10:28:45;;;;;;;7.43;2.42;;;;;;;14.87;87.54;101623.50;4879863;29;20076;-67
2023/10/06 10:31:52;;;;;;;8.00;3.03;;;;;;;14.95;82.99;101625.72;4879833;29;20052;-72
2023/10/06 10:35:15;;;;;;;8.30;2.63;;;;;;;15.05;81.48;101615.53;4868115;29;20458;-74
2023/10/06 10:38:18;;;;;;;9.07;2.80;;;;;;;15.02;80.54;101607.78;4879512;29;20549;-74
2023/10/06 10:41:23;;;;;;;12.48;3.33;;;;;;;15.08;81.32;101608.31;4879628;29;20105;-68
2023/10/06 10:44:27;;;;;;;10.10;3.05;;;;;;;15.00;81.10;101613.16;4879620;29;20093;-70
2023/10/06 10:47:31;;;;;;;10.13;2.80;;;;;;;15.00;80.92;101613.16;4879717;29;20048;-75
2023/10/06 10:50:55;;;;;;;8.18;3.00;;;;;;;15.02;81.02;101606.00;4879350;29;20137;-72
2023/10/06 10:53:59;;;;;;;11.75;2.95;;;;;;;15.22;80.80;101604.06;4879067;29;20056;-74
2023/10/06 10:57:09;;;;;;;13.30;3.08;;;;;;;15.23;83.49;101606.66;4879075;29;20052;-67
2023/10/06 11:00:13;;;;;;;6.93;2.80;;;;;;;15.24;77.63;101596.94;4878884;29;20469;-67
2023/10/06 11:03:19;;;;;;;6.50;2.70;;;;;;;15.34;80.43;101585.81;4878345;29;20052;-68
2023/10/06 11:06:23;;;;;;;7.30;3.10;;;;;;;15.40;77.98;101576.72;4878860;29;20117;-73
2023/10/06 11:09:37;;;;;;;9.15;3.42;;;;;;;15.51;75.84;101579.63;4878706;29;20096;-66
2023/10/06 11:12:40;;;;;;;8.82;2.97;;;;;;;15.61;75.72;101572.03;4878517;29;20056;-65
2023/10/06 11:15:43;;;;;;;9.57;3.28;;;;;;;15.83;74.22;101571.69;4878887;29;20069;-68
2023/10/06 11:18:47;;;;;;;10.40;3.75;;;;;;;15.80;74.48;101563.97;4879005;29;20055;-66
2023/10/06 11:21:52;;;;;;;6.82;2.75;;;;;;;15.86;73.89;101566.25;4878499;29;20044;-67
2023/10/06 11:25:02;;;;;;;7.63;3.05;;;;;;;16.05;72.30;101544.91;4878571;29;20060;-66
2023/10/06 11:28:09;;;;;;;9.77;2.85;;;;;;;16.17;73.15;101540.69;4878512;29;20112;-68
2023/10/06 11:31:13;;;;;;;7.43;2.80;;;;;;;16.26;71.33;101537.50;4878353;29;20063;-69
2023/10/06 11:34:16;;;;;;;9.13;3.35;;;;;;;16.31;71.22;101530.16;4878296;29;20048;-67
2023/10/06 11:37:24;;;;;;;13.23;3.15;;;;;;;16.41;68.98;101526.03;4866744;29;20056;-68
2023/10/06 11:40:30;;;;;;;9.15;3.28;;;;;;;16.46;69.59;101523.97;4878230;29;20072;-70
2023/10/06 11:43:34;;;;;;;8.25;3.17;;;;;;;16.54;68.91;101512.91;4877599;29;20087;-70
2023/10/06 11:46:51;;;;;;;11.25;4.07;;;;;;;16.73;67.82;101516.13;4878231;29;20060;-71
2023/10/06 11:49:55;;;;;;;10.43;4.05;;;;;;;16.90;67.32;101508.97;4878105;29;20056;-69
2023/10/06 11:52:59;;;;;;;13.35;3.90;;;;;;;16.99;66.81;101491.69;4877839;29;20462;-70
2023/10/06 11:56:13;;;;;;;11.50;3.30;;;;;;;17.01;68.54;101497.72;4878238;29;20413;-64
2023/10/06 11:59:22;;;;;;;12.55;3.10;;;;;;;17.15;68.70;101495.03;4877617;29;20415;-67
2023/10/06 12:02:25;;;;;;;10.25;3.28;;;;;;;17.30;67.40;101488.75;4877943;29;20116;-70
2023/10/06 12:05:30;;;;;;;9.75;3.50;;;;;;;17.39;64.14;101488.16;4877838;29;20136;-70
2023/10/06 12:08:45;;;;;;;9.18;3.95;;;;;;;17.52;62.73;101485.56;4877766;29;20061;-69
2023/10/06 12:11:50;;;;;;;13.20;4.10;;;;;;;17.65;61.61;101473.22;4877595;29;20149;-71
2023/10/06 12:14:55;;;;;;;13.40;4.05;;;;;;;17.83;61.23;101480.88;4877997;29;20105;-71
2023/10/06 12:18:00;;;;;;;5.68;3.35;;;;;;;17.95;58.35;101468.63;4877772;29;20052;-66
2023/10/06 12:21:06;;;;;;;8.88;3.47;;;;;;;18.18;57.93;101465.22;4878029;29;20105;-67
2023/10/06 12:24:11;;;;;;;7.40;3.38;;;;;;;18.32;57.99;101464.28;4878328;29;20413;-76
2023/10/06 12:27:17;;;;;;;7.90;2.90;;;;;;;18.36;57.62;101458.66;4866380;29;20064;-68
2023/10/06 12:30:21;;;;;;;11.25;4.05;;;;;;;18.39;56.82;101449.66;4877705;29;20052;-67
2023/10/06 12:33:24;;;;;;;7.85;3.20;;;;;;;18.67;55.65;101448.53;4877253;29;20071;-67
2023/10/06 12:36:27;;;;;;;7.55;3.13;;;;;;;18.99;54.98;101437.44;4877441;29;20113;-68
2023/10/06 12:39:34;;;;;;;7.78;3.55;;;;;;;18.84;54.13;101434.09;4877754;29;20043;-69
2023/10/06 12:42:45;;;;;;;5.90;3.60;;;;;;;18.63;55.20;101439.09;4877496;29;20459;-67
2023/10/06 12:45:48;;;;;;;13.63;4.68;;;;;;;18.67;55.94;101435.31;4877337;29;20104;-68
2023/10/06 12:48:51;;;;;;;8.45;3.95;;;;;;;18.57;55.43;101423.69;4877327;29;20128;-68
2023/10/06 12:51:54;;;;;;;10.82;4.30;;;;;;;18.60;60.24;101428.72;4877328;29;20052;-76
2023/10/06 12:54:59;;;;;;;8.30;3.75;;;;;;;18.65;59.82;101426.59;4877229;29;20525;-67
2023/10/06 12:58:04;;;;;;;9.50;4.25;;;;;;;18.44;57.37;101428.13;4877410;29;20118;-69
2023/10/06 13:01:07;;;;;;;9.52;4.22;;;;;;;18.83;56.79;101424.47;4877446;29;20051;-67
2023/10/06 13:04:13;;;;;;;10.90;3.90;;;;;;;18.38;55.96;101431.22;4877350;29;20087;-68
2023/10/06 13:07:16;;;;;;;10.10;4.03;;;;;;;18.40;56.38;101432.81;4877196;29;20157;-68
2023/10/06 13:10:24;;;;;;;8.02;4.15;;;;;;;18.30;54.80;101437.91;4876928;29;20075;-66
2023/10/06 13:13:27;;;;;;;10.25;4.55;;;;;;;18.31;54.86;101436.97;4876949;29;20458;-68
2023/10/06 13:16:32;;;;;;;20.25;5.07;;;;;;;18.45;54.66;101429.84;4865807;29;20124;-67
2023/10/06 13:19:36;;;;;;;11.60;4.20;;;;;;;18.83;54.57;101431.59;4877142;29;20101;-68
2023/10/06 13:22:43;;;;;;;12.45;4.55;;;;;;;19.39;54.15;101430.03;4877144;29;20104;-68
2023/10/06 13:25:47;;;;;;;9.50;5.00;;;;;;;18.80;55.17;101427.34;4880067;29;20583;-68
2023/10/06 13:28:53;;;;;;;30.55;5.95;;;;;;;18.75;53.75;101422.38;4880439;29;20051;-67
2023/10/06 13:31:56;;;;;;;12.80;4.50;;;;;;;20.70;49.28;101417.28;4880430;29;20491;-68
2023/10/06 13:35:00;;;;;;;8.32;4.70;;;;;;;23.97;41.11;101408.19;4880403;29;20561;-68
2023/10/06 13:38:09;;;;;;;8.02;4.85;;;;;;;27.03;36.29;101398.47;4880594;29;20103;-68
2023/10/06 13:41:13;;;;;;;7.93;4.40;;;;;;;28.09;33.47;101396.69;4880287;29;20065;-69
2023/10/06 13:44:16;;;;;;;11.70;4.93;;;;;;;27.95;33.78;101391.03;4880734;29;20104;-69
2023/10/06 13:47:21;;;;;;;9.02;5.15;;;;;;;25.81;36.50;101398.00;4880198;29;20075;-69
2023/10/06 13:50:27;;;;;;;9.45;4.43;;;;;;;24.40;37.23;101394.19;4880278;29;20132;-72
2023/10/06 13:53:30;;;;;;;9.98;5.03;;;;;;;23.68;38.04;101385.03;4880068;29;20517;-70
2023/10/06 13:56:34;;;;;;;7.88;4.50;;;;;;;21.60;42.59;101393.84;4880310;29;20374;-70
2023/10/06 13:59:42;;;;;;;8.85;5.25;;;;;;;21.28;43.90;101383.22;4880251;29;20138;-68
2023/10/06 14:02:49;;;;;;;9.63;4.65;;;;;;;21.63;44.34;101390.91;4868639;29;20091;-69
2023/10/06 14:05:55;;;;;;;9.18;4.80;;;;;;;22.75;43.65;101389.97;4880201;29;20067;-71
2023/10/06 14:08:59;;;;;;;8.32;5.50;;;;;;;23.09;40.63;101389.59;4879898;29;20445;-71
2023/10/06 14:12:02;;;;;;;8.13;5.25;;;;;;;23.72;38.97;101391.78;4879686;29;20132;-70
2023/10/06 14:15:21;;;;;;;9.30;4.82;;;;;;;23.35;39.59;101394.34;4880200;29;20227;-68
2023/10/06 14:18:25;;;;;;;7.72;5.20;;;;;;;23.75;38.79;101391.50;4868350;29;20132;-66
2023/10/06 14:21:28;;;;;;;7.03;4.82;;;;;;;22.58;40.65;101392.47;4868034;29;20052;-72
2023/10/06 14:24:34;;;;;;;10.38;4.82;;;;;;;22.33;40.77;101394.63;4879888;29;20056;-65
2023/10/06 14:27:38;;;;;;;8.80;5.47;;;;;;;23.26;39.00;101395.19;4879819;29;20576;-66
2023/10/06 14:30:43;;;;;;;8.80;5.25;;;;;;;24.75;36.73;101388.06;4879855;29;20117;-66
2023/10/06 14:33:57;;;;;;;8.27;5.75;;;;;;;23.09;39.36;101404.75;4868434;29;20113;-67